sensor_id;sensor_type;location;lat;lon;timestamp;temperature;humidity
7476;DHT22;3779;49.216;8.650;2022-09-13T00:00:06;26.70;46.30
7476;DHT22;3779;49.216;8.650;2022-09-13T00:02:52;26.70;46.20
7476;DHT22;3779;49.216;8.650;2022-09-13T00:05:38;26.70;46.10
7476;DHT22;3779;49.216;8.650;2022-09-13T00:08:24;26.70;46.20
7476;DHT22;3779;49.216;8.650;2022-09-13T00:11:20;26.70;46.00
7476;DHT22;3779;49.216;8.650;2022-09-13T00:14:06;26.70;46.30
7476;DHT22;3779;49.216;8.650;2022-09-13T00:16:52;26.80;46.20
7476;DHT22;3779;49.216;8.650;2022-09-13T00:19:37;26.80;46.30
7476;DHT22;3779;49.216;8.650;2022-09-13T00:22:23;26.80;46.30
7476;DHT22;3779;49.216;8.650;2022-09-13T00:25:09;26.80;46.00
7476;DHT22;3779;49.216;8.650;2022-09-13T00:27:56;26.80;46.00
7476;DHT22;3779;49.216;8.650;2022-09-13T00:30:41;26.80;45.90
7476;DHT22;3779;49.216;8.650;2022-09-13T00:33:27;26.80;45.80
7476;DHT22;3779;49.216;8.650;2022-09-13T00:36:13;26.80;45.60
7476;DHT22;3779;49.216;8.650;2022-09-13T00:39:00;26.70;45.60
7476;DHT22;3779;49.216;8.650;2022-09-13T00:41:46;26.70;45.60
7476;DHT22;3779;49.216;8.650;2022-09-13T00:47:52;26.70;46.10
7476;DHT22;3779;49.216;8.650;2022-09-13T00:50:42;26.70;45.80
7476;DHT22;3779;49.216;8.650;2022-09-13T00:53:32;26.70;45.80
7476;DHT22;3779;49.216;8.650;2022-09-13T00:56:27;26.70;45.90
7476;DHT22;3779;49.216;8.650;2022-09-13T00:59:26;26.70;45.90
7476;DHT22;3779;49.216;8.650;2022-09-13T01:02:14;26.70;46.00
7476;DHT22;3779;49.216;8.650;2022-09-13T01:05:00;26.70;45.70
7476;DHT22;3779;49.216;8.650;2022-09-13T01:07:46;26.70;46.00
7476;DHT22;3779;49.216;8.650;2022-09-13T01:10:33;26.70;45.90
7476;DHT22;3779;49.216;8.650;2022-09-13T01:13:27;26.70;45.80
7476;DHT22;3779;49.216;8.650;2022-09-13T01:16:13;26.70;45.90
7476;DHT22;3779;49.216;8.650;2022-09-13T01:18:59;26.70;45.80
7476;DHT22;3779;49.216;8.650;2022-09-13T01:31:11;26.70;46.00
7476;DHT22;3779;49.216;8.650;2022-09-13T01:34:24;26.70;45.70
7476;DHT22;3779;49.216;8.650;2022-09-13T01:37:38;26.70;45.60
7476;DHT22;3779;49.216;8.650;2022-09-13T01:50:30;26.70;45.90
7476;DHT22;3779;49.216;8.650;2022-09-13T01:56:07;26.70;45.50
7476;DHT22;3779;49.216;8.650;2022-09-13T01:59:03;26.70;45.20
7476;DHT22;3779;49.216;8.650;2022-09-13T02:02:03;26.70;45.10
7476;DHT22;3779;49.216;8.650;2022-09-13T02:04:59;26.70;45.20
7476;DHT22;3779;49.216;8.650;2022-09-13T02:07:54;26.70;45.20
7476;DHT22;3779;49.216;8.650;2022-09-13T02:10:54;26.70;45.30
7476;DHT22;3779;49.216;8.650;2022-09-13T02:14:06;26.70;45.40
7476;DHT22;3779;49.216;8.650;2022-09-13T02:17:01;26.60;45.40
7476;DHT22;3779;49.216;8.650;2022-09-13T02:19:53;26.70;45.20
7476;DHT22;3779;49.216;8.650;2022-09-13T02:22:45;26.60;45.00
7476;DHT22;3779;49.216;8.650;2022-09-13T02:25:35;26.60;45.70
7476;DHT22;3779;49.216;8.650;2022-09-13T02:28:31;26.60;45.10
7476;DHT22;3779;49.216;8.650;2022-09-13T02:31:31;26.60;45.10
7476;DHT22;3779;49.216;8.650;2022-09-13T02:34:22;26.60;45.10
7476;DHT22;3779;49.216;8.650;2022-09-13T02:37:09;26.60;45.10
7476;DHT22;3779;49.216;8.650;2022-09-13T02:39:58;26.60;45.10
7476;DHT22;3779;49.216;8.650;2022-09-13T02:43:19;26.60;45.00
7476;DHT22;3779;49.216;8.650;2022-09-13T02:46:42;26.60;45.10
7476;DHT22;3779;49.216;8.650;2022-09-13T02:56:04;26.60;45.50
7476;DHT22;3779;49.216;8.650;2022-09-13T02:59:16;26.60;45.20
7476;DHT22;3779;49.216;8.650;2022-09-13T03:02:11;26.60;45.30
7476;DHT22;3779;49.216;8.650;2022-09-13T03:05:00;26.60;45.30
7476;DHT22;3779;49.216;8.650;2022-09-13T03:07:47;26.60;45.20
7476;DHT22;3779;49.216;8.650;2022-09-13T03:10:52;26.60;45.10
7476;DHT22;3779;49.216;8.650;2022-09-13T03:20:10;26.60;45.10
7476;DHT22;3779;49.216;8.650;2022-09-13T03:29:15;26.60;44.60
7476;DHT22;3779;49.216;8.650;2022-09-13T03:32:25;26.60;44.70
7476;DHT22;3779;49.216;8.650;2022-09-13T03:35:39;26.60;44.90
7476;DHT22;3779;49.216;8.650;2022-09-13T03:41:21;26.60;44.80
7476;DHT22;3779;49.216;8.650;2022-09-13T03:44:10;26.60;44.80
7476;DHT22;3779;49.216;8.650;2022-09-13T03:47:00;26.50;44.70
7476;DHT22;3779;49.216;8.650;2022-09-13T03:49:47;26.60;44.80
7476;DHT22;3779;49.216;8.650;2022-09-13T03:52:35;26.60;44.80
7476;DHT22;3779;49.216;8.650;2022-09-13T03:55:21;26.60;44.70
7476;DHT22;3779;49.216;8.650;2022-09-13T03:58:11;26.60;45.00
7476;DHT22;3779;49.216;8.650;2022-09-13T04:00:57;26.60;45.00
7476;DHT22;3779;49.216;8.650;2022-09-13T04:03:43;26.60;45.10
7476;DHT22;3779;49.216;8.650;2022-09-13T04:06:28;26.60;45.10
7476;DHT22;3779;49.216;8.650;2022-09-13T04:09:14;26.60;45.10
7476;DHT22;3779;49.216;8.650;2022-09-13T04:12:01;26.60;45.00
7476;DHT22;3779;49.216;8.650;2022-09-13T04:14:47;26.60;44.90
7476;DHT22;3779;49.216;8.650;2022-09-13T04:17:32;26.60;44.60
7476;DHT22;3779;49.216;8.650;2022-09-13T04:20:19;26.50;44.30
7476;DHT22;3779;49.216;8.650;2022-09-13T04:23:05;26.50;44.30
7476;DHT22;3779;49.216;8.650;2022-09-13T04:25:51;26.50;44.50
7476;DHT22;3779;49.216;8.650;2022-09-13T04:28:37;26.50;44.60
7476;DHT22;3779;49.216;8.650;2022-09-13T04:31:23;26.60;44.70
7476;DHT22;3779;49.216;8.650;2022-09-13T04:34:09;26.60;44.80
7476;DHT22;3779;49.216;8.650;2022-09-13T04:36:56;26.60;45.00
7476;DHT22;3779;49.216;8.650;2022-09-13T04:39:42;26.60;45.00
7476;DHT22;3779;49.216;8.650;2022-09-13T04:42:28;26.60;45.10
7476;DHT22;3779;49.216;8.650;2022-09-13T04:45:14;26.60;45.10
7476;DHT22;3779;49.216;8.650;2022-09-13T04:48:00;26.60;45.00
7476;DHT22;3779;49.216;8.650;2022-09-13T04:50:47;26.60;45.00
7476;DHT22;3779;49.216;8.650;2022-09-13T04:53:34;26.60;45.00
7476;DHT22;3779;49.216;8.650;2022-09-13T04:56:25;26.60;44.90
7476;DHT22;3779;49.216;8.650;2022-09-13T04:59:11;26.60;45.10
7476;DHT22;3779;49.216;8.650;2022-09-13T05:01:59;26.60;45.20
7476;DHT22;3779;49.216;8.650;2022-09-13T05:04:44;26.60;45.20
7476;DHT22;3779;49.216;8.650;2022-09-13T05:07:30;26.60;45.10
7476;DHT22;3779;49.216;8.650;2022-09-13T05:10:16;26.60;45.30
7476;DHT22;3779;49.216;8.650;2022-09-13T05:13:02;26.60;45.20
7476;DHT22;3779;49.216;8.650;2022-09-13T05:15:48;26.60;45.10
7476;DHT22;3779;49.216;8.650;2022-09-13T05:18:35;26.60;47.50
7476;DHT22;3779;49.216;8.650;2022-09-13T05:21:21;26.90;47.70
7476;DHT22;3779;49.216;8.650;2022-09-13T05:24:08;26.80;46.70
7476;DHT22;3779;49.216;8.650;2022-09-13T05:26:54;26.90;46.50
7476;DHT22;3779;49.216;8.650;2022-09-13T05:29:40;27.00;46.30
7476;DHT22;3779;49.216;8.650;2022-09-13T05:32:26;26.90;46.20
7476;DHT22;3779;49.216;8.650;2022-09-13T05:35:12;26.90;46.50
7476;DHT22;3779;49.216;8.650;2022-09-13T05:37:58;26.90;46.00
7476;DHT22;3779;49.216;8.650;2022-09-13T05:40:44;26.90;46.30
7476;DHT22;3779;49.216;8.650;2022-09-13T05:43:32;26.90;45.90
7476;DHT22;3779;49.216;8.650;2022-09-13T05:46:19;26.80;46.30
7476;DHT22;3779;49.216;8.650;2022-09-13T05:49:06;26.80;46.50
7476;DHT22;3779;49.216;8.650;2022-09-13T05:51:51;26.80;46.20
7476;DHT22;3779;49.216;8.650;2022-09-13T05:54:37;26.80;46.20
7476;DHT22;3779;49.216;8.650;2022-09-13T05:57:23;26.80;46.60
7476;DHT22;3779;49.216;8.650;2022-09-13T06:00:09;26.80;46.20
7476;DHT22;3779;49.216;8.650;2022-09-13T06:02:58;26.80;46.60
7476;DHT22;3779;49.216;8.650;2022-09-13T06:05:45;26.80;46.40
7476;DHT22;3779;49.216;8.650;2022-09-13T06:08:32;26.70;46.40
7476;DHT22;3779;49.216;8.650;2022-09-13T06:11:18;26.70;46.60
7476;DHT22;3779;49.216;8.650;2022-09-13T06:14:04;26.70;47.60
7476;DHT22;3779;49.216;8.650;2022-09-13T06:16:50;26.70;47.30
7476;DHT22;3779;49.216;8.650;2022-09-13T06:19:36;26.80;47.00
7476;DHT22;3779;49.216;8.650;2022-09-13T06:22:22;26.80;47.30
7476;DHT22;3779;49.216;8.650;2022-09-13T06:25:08;26.80;47.10
7476;DHT22;3779;49.216;8.650;2022-09-13T06:27:54;26.80;47.70
7476;DHT22;3779;49.216;8.650;2022-09-13T06:30:40;26.80;47.60
7476;DHT22;3779;49.216;8.650;2022-09-13T06:33:26;26.80;47.60
7476;DHT22;3779;49.216;8.650;2022-09-13T06:36:14;26.80;47.80
7476;DHT22;3779;49.216;8.650;2022-09-13T06:39:02;26.80;48.10
7476;DHT22;3779;49.216;8.650;2022-09-13T06:41:50;26.80;48.70
7476;DHT22;3779;49.216;8.650;2022-09-13T06:44:43;26.80;48.40
7476;DHT22;3779;49.216;8.650;2022-09-13T06:47:33;26.90;48.70
7476;DHT22;3779;49.216;8.650;2022-09-13T06:50:19;26.90;48.30
7476;DHT22;3779;49.216;8.650;2022-09-13T06:53:04;26.90;48.00
7476;DHT22;3779;49.216;8.650;2022-09-13T06:55:59;26.90;48.30
7476;DHT22;3779;49.216;8.650;2022-09-13T06:58:47;26.90;48.80
7476;DHT22;3779;49.216;8.650;2022-09-13T07:01:35;26.90;48.60
7476;DHT22;3779;49.216;8.650;2022-09-13T07:04:21;26.90;48.10
7476;DHT22;3779;49.216;8.650;2022-09-13T07:07:07;27.00;48.30
7476;DHT22;3779;49.216;8.650;2022-09-13T07:09:53;26.90;48.10
7476;DHT22;3779;49.216;8.650;2022-09-13T07:12:40;26.90;48.60
7476;DHT22;3779;49.216;8.650;2022-09-13T07:15:26;26.90;49.00
7476;DHT22;3779;49.216;8.650;2022-09-13T07:18:12;26.90;49.60
7476;DHT22;3779;49.216;8.650;2022-09-13T07:21:02;26.90;49.50
7476;DHT22;3779;49.216;8.650;2022-09-13T07:23:50;27.00;49.70
7476;DHT22;3779;49.216;8.650;2022-09-13T07:26:37;27.00;49.50
7476;DHT22;3779;49.216;8.650;2022-09-13T07:29:23;27.00;50.00
7476;DHT22;3779;49.216;8.650;2022-09-13T07:32:08;27.00;50.40
7476;DHT22;3779;49.216;8.650;2022-09-13T07:34:54;27.00;49.80
7476;DHT22;3779;49.216;8.650;2022-09-13T07:37:40;27.10;49.60
7476;DHT22;3779;49.216;8.650;2022-09-13T07:40:26;27.00;50.50
7476;DHT22;3779;49.216;8.650;2022-09-13T07:43:12;27.00;50.40
7476;DHT22;3779;49.216;8.650;2022-09-13T07:46:03;27.10;51.10
7476;DHT22;3779;49.216;8.650;2022-09-13T07:48:51;27.10;51.40
7476;DHT22;3779;49.216;8.650;2022-09-13T07:51:40;27.10;51.40
7476;DHT22;3779;49.216;8.650;2022-09-13T07:54:26;27.10;50.90
7476;DHT22;3779;49.216;8.650;2022-09-13T07:57:12;27.20;50.20
7476;DHT22;3779;49.216;8.650;2022-09-13T07:59:58;27.10;51.20
7476;DHT22;3779;49.216;8.650;2022-09-13T08:02:43;27.10;51.20
7476;DHT22;3779;49.216;8.650;2022-09-13T08:05:31;27.10;51.20
7476;DHT22;3779;49.216;8.650;2022-09-13T08:08:17;27.10;51.30
7476;DHT22;3779;49.216;8.650;2022-09-13T08:11:06;27.10;51.60
7476;DHT22;3779;49.216;8.650;2022-09-13T08:13:52;27.10;51.70
7476;DHT22;3779;49.216;8.650;2022-09-13T08:16:38;27.10;51.70
7476;DHT22;3779;49.216;8.650;2022-09-13T08:19:24;27.10;51.90
7476;DHT22;3779;49.216;8.650;2022-09-13T08:22:10;27.10;51.80
7476;DHT22;3779;49.216;8.650;2022-09-13T08:24:56;27.10;51.40
7476;DHT22;3779;49.216;8.650;2022-09-13T08:27:41;27.10;51.70
7476;DHT22;3779;49.216;8.650;2022-09-13T08:30:27;27.10;51.90
7476;DHT22;3779;49.216;8.650;2022-09-13T08:33:17;27.10;52.00
7476;DHT22;3779;49.216;8.650;2022-09-13T08:36:03;27.00;52.20
7476;DHT22;3779;49.216;8.650;2022-09-13T08:38:52;27.00;52.50
7476;DHT22;3779;49.216;8.650;2022-09-13T08:44:46;27.10;52.30
7476;DHT22;3779;49.216;8.650;2022-09-13T08:47:45;27.00;52.20
7476;DHT22;3779;49.216;8.650;2022-09-13T08:50:33;27.10;52.40
7476;DHT22;3779;49.216;8.650;2022-09-13T08:53:25;27.10;52.30
7476;DHT22;3779;49.216;8.650;2022-09-13T08:56:19;27.10;52.30
7476;DHT22;3779;49.216;8.650;2022-09-13T09:05:29;27.10;52.30
7476;DHT22;3779;49.216;8.650;2022-09-13T09:08:39;27.10;52.10
7476;DHT22;3779;49.216;8.650;2022-09-13T09:11:33;27.10;52.60
7476;DHT22;3779;49.216;8.650;2022-09-13T09:14:40;27.00;52.60
7476;DHT22;3779;49.216;8.650;2022-09-13T09:18:01;27.00;53.10
7476;DHT22;3779;49.216;8.650;2022-09-13T09:20:45;26.90;53.00
7476;DHT22;3779;49.216;8.650;2022-09-13T09:23:44;26.90;52.90
7476;DHT22;3779;49.216;8.650;2022-09-13T09:26:33;26.90;53.10
7476;DHT22;3779;49.216;8.650;2022-09-13T09:35:15;27.00;52.90
7476;DHT22;3779;49.216;8.650;2022-09-13T09:41:33;27.00;52.80
7476;DHT22;3779;49.216;8.650;2022-09-13T09:47:40;26.90;52.80
7476;DHT22;3779;49.216;8.650;2022-09-13T09:50:31;26.90;53.30
7476;DHT22;3779;49.216;8.650;2022-09-13T09:53:24;26.80;53.10
7476;DHT22;3779;49.216;8.650;2022-09-13T09:56:31;26.90;52.40
7476;DHT22;3779;49.216;8.650;2022-09-13T09:59:28;27.00;52.90
7476;DHT22;3779;49.216;8.650;2022-09-13T10:02:19;26.90;52.40
7476;DHT22;3779;49.216;8.650;2022-09-13T10:05:06;27.10;51.00
7476;DHT22;3779;49.216;8.650;2022-09-13T10:07:56;27.10;52.20
7476;DHT22;3779;49.216;8.650;2022-09-13T10:10:50;27.00;52.70
7476;DHT22;3779;49.216;8.650;2022-09-13T10:13:37;26.90;52.80
7476;DHT22;3779;49.216;8.650;2022-09-13T10:16:28;26.90;52.90
7476;DHT22;3779;49.216;8.650;2022-09-13T10:19:24;26.90;52.90
7476;DHT22;3779;49.216;8.650;2022-09-13T10:22:11;26.90;53.00
7476;DHT22;3779;49.216;8.650;2022-09-13T10:28:03;26.90;53.10
7476;DHT22;3779;49.216;8.650;2022-09-13T10:30:56;26.90;53.00
7476;DHT22;3779;49.216;8.650;2022-09-13T10:33:58;26.90;53.10
7476;DHT22;3779;49.216;8.650;2022-09-13T10:42:39;27.30;50.80
7476;DHT22;3779;49.216;8.650;2022-09-13T10:45:28;27.30;50.60
7476;DHT22;3779;49.216;8.650;2022-09-13T10:48:16;27.30;50.40
7476;DHT22;3779;49.216;8.650;2022-09-13T10:51:16;27.40;50.00
7476;DHT22;3779;49.216;8.650;2022-09-13T10:54:28;27.30;50.20
7476;DHT22;3779;49.216;8.650;2022-09-13T10:57:50;27.30;51.10
7476;DHT22;3779;49.216;8.650;2022-09-13T11:04:04;27.30;51.20
7476;DHT22;3779;49.216;8.650;2022-09-13T11:15:57;27.40;50.00
7476;DHT22;3779;49.216;8.650;2022-09-13T11:22:23;27.30;51.20
7476;DHT22;3779;49.216;8.650;2022-09-13T11:43:18;27.40;51.10
7476;DHT22;3779;49.216;8.650;2022-09-13T11:46:26;27.40;50.90
7476;DHT22;3779;49.216;8.650;2022-09-13T11:55:48;27.30;51.30
7476;DHT22;3779;49.216;8.650;2022-09-13T11:58:41;27.30;50.90
7476;DHT22;3779;49.216;8.650;2022-09-13T12:01:43;27.40;50.90
7476;DHT22;3779;49.216;8.650;2022-09-13T12:04:37;27.30;52.10
7476;DHT22;3779;49.216;8.650;2022-09-13T12:07:40;27.20;52.40
7476;DHT22;3779;49.216;8.650;2022-09-13T12:13:35;27.10;52.80
7476;DHT22;3779;49.216;8.650;2022-09-13T12:16:41;27.10;52.80
7476;DHT22;3779;49.216;8.650;2022-09-13T12:19:39;27.10;52.00
7476;DHT22;3779;49.216;8.650;2022-09-13T12:22:31;27.30;51.00
7476;DHT22;3779;49.216;8.650;2022-09-13T12:25:23;27.40;50.10
7476;DHT22;3779;49.216;8.650;2022-09-13T12:28:22;27.40;51.00
7476;DHT22;3779;49.216;8.650;2022-09-13T12:31:14;27.40;51.20
7476;DHT22;3779;49.216;8.650;2022-09-13T12:34:12;27.30;51.10
7476;DHT22;3779;49.216;8.650;2022-09-13T12:40:42;27.30;52.40
7476;DHT22;3779;49.216;8.650;2022-09-13T13:01:45;27.20;52.40
7476;DHT22;3779;49.216;8.650;2022-09-13T13:04:33;27.20;52.70
7476;DHT22;3779;49.216;8.650;2022-09-13T13:07:22;27.10;52.70
7476;DHT22;3779;49.216;8.650;2022-09-13T13:13:21;27.10;53.00
7476;DHT22;3779;49.216;8.650;2022-09-13T13:16:32;27.20;51.60
7476;DHT22;3779;49.216;8.650;2022-09-13T13:19:32;27.40;51.70
7476;DHT22;3779;49.216;8.650;2022-09-13T13:26:03;27.40;51.80
7476;DHT22;3779;49.216;8.650;2022-09-13T13:32:08;27.40;51.80
7476;DHT22;3779;49.216;8.650;2022-09-13T13:34:54;27.30;52.50
7476;DHT22;3779;49.216;8.650;2022-09-13T13:37:43;27.20;52.60
7476;DHT22;3779;49.216;8.650;2022-09-13T13:40:29;27.20;53.00
7476;DHT22;3779;49.216;8.650;2022-09-13T13:55:41;27.10;53.30
7476;DHT22;3779;49.216;8.650;2022-09-13T13:58:42;27.10;53.30
7476;DHT22;3779;49.216;8.650;2022-09-13T14:01:32;27.10;53.30
7476;DHT22;3779;49.216;8.650;2022-09-13T14:19:38;27.40;51.70
7476;DHT22;3779;49.216;8.650;2022-09-13T14:22:27;27.30;52.50
7476;DHT22;3779;49.216;8.650;2022-09-13T14:25:24;27.30;51.80
7476;DHT22;3779;49.216;8.650;2022-09-13T14:28:16;27.40;51.50
7476;DHT22;3779;49.216;8.650;2022-09-13T14:31:05;27.50;50.30
7476;DHT22;3779;49.216;8.650;2022-09-13T14:33:51;27.50;50.50
7476;DHT22;3779;49.216;8.650;2022-09-13T14:36:37;27.50;51.50
7476;DHT22;3779;49.216;8.650;2022-09-13T14:39:24;27.40;52.00
7476;DHT22;3779;49.216;8.650;2022-09-13T14:42:13;27.30;52.50
7476;DHT22;3779;49.216;8.650;2022-09-13T14:45:00;27.20;52.60
7476;DHT22;3779;49.216;8.650;2022-09-13T14:47:55;27.20;52.70
7476;DHT22;3779;49.216;8.650;2022-09-13T14:51:11;27.20;52.70
7476;DHT22;3779;49.216;8.650;2022-09-13T14:54:09;27.20;53.00
7476;DHT22;3779;49.216;8.650;2022-09-13T14:56:58;27.20;52.70
7476;DHT22;3779;49.216;8.650;2022-09-13T14:59:49;27.20;52.60
7476;DHT22;3779;49.216;8.650;2022-09-13T15:02:37;27.20;52.70
7476;DHT22;3779;49.216;8.650;2022-09-13T15:05:26;27.20;52.60
7476;DHT22;3779;49.216;8.650;2022-09-13T15:11:31;27.20;52.30
7476;DHT22;3779;49.216;8.650;2022-09-13T15:17:50;27.20;52.30
7476;DHT22;3779;49.216;8.650;2022-09-13T15:23:38;27.40;51.80
7476;DHT22;3779;49.216;8.650;2022-09-13T15:26:26;27.60;51.90
7476;DHT22;3779;49.216;8.650;2022-09-13T15:29:18;27.40;51.70
7476;DHT22;3779;49.216;8.650;2022-09-13T15:32:04;27.50;51.70
7476;DHT22;3779;49.216;8.650;2022-09-13T15:34:51;27.30;52.60
7476;DHT22;3779;49.216;8.650;2022-09-13T15:37:37;27.20;52.90
7476;DHT22;3779;49.216;8.650;2022-09-13T15:40:23;27.20;53.00
7476;DHT22;3779;49.216;8.650;2022-09-13T15:43:11;27.20;53.10
7476;DHT22;3779;49.216;8.650;2022-09-13T15:45:59;27.20;53.00
7476;DHT22;3779;49.216;8.650;2022-09-13T15:48:52;27.30;52.40
7476;DHT22;3779;49.216;8.650;2022-09-13T15:51:41;27.40;52.40
7476;DHT22;3779;49.216;8.650;2022-09-13T15:54:36;27.50;52.40
7476;DHT22;3779;49.216;8.650;2022-09-13T15:57:24;27.50;52.50
7476;DHT22;3779;49.216;8.650;2022-09-13T16:00:20;27.50;52.40
7476;DHT22;3779;49.216;8.650;2022-09-13T16:03:08;27.50;52.50
7476;DHT22;3779;49.216;8.650;2022-09-13T16:05:54;27.50;52.40
7476;DHT22;3779;49.216;8.650;2022-09-13T16:08:40;27.50;52.40
7476;DHT22;3779;49.216;8.650;2022-09-13T16:11:27;27.50;52.40
7476;DHT22;3779;49.216;8.650;2022-09-13T16:14:15;27.60;52.70
7476;DHT22;3779;49.216;8.650;2022-09-13T16:17:11;27.50;52.70
7476;DHT22;3779;49.216;8.650;2022-09-13T16:19:57;27.50;52.70
7476;DHT22;3779;49.216;8.650;2022-09-13T16:22:43;27.60;52.70
7476;DHT22;3779;49.216;8.650;2022-09-13T16:25:29;27.50;52.70
7476;DHT22;3779;49.216;8.650;2022-09-13T16:28:17;27.50;52.60
7476;DHT22;3779;49.216;8.650;2022-09-13T16:31:05;27.60;52.80
7476;DHT22;3779;49.216;8.650;2022-09-13T16:33:51;27.60;52.70
7476;DHT22;3779;49.216;8.650;2022-09-13T16:36:37;27.60;52.70
7476;DHT22;3779;49.216;8.650;2022-09-13T16:39:23;27.60;52.60
7476;DHT22;3779;49.216;8.650;2022-09-13T16:42:10;27.60;52.70
7476;DHT22;3779;49.216;8.650;2022-09-13T16:44:56;27.60;52.80
7476;DHT22;3779;49.216;8.650;2022-09-13T16:47:42;27.60;52.80
7476;DHT22;3779;49.216;8.650;2022-09-13T16:50:27;27.60;52.70
7476;DHT22;3779;49.216;8.650;2022-09-13T16:53:13;27.60;52.70
7476;DHT22;3779;49.216;8.650;2022-09-13T16:56:10;27.60;52.70
7476;DHT22;3779;49.216;8.650;2022-09-13T16:58:56;27.60;53.10
7476;DHT22;3779;49.216;8.650;2022-09-13T17:01:42;27.60;52.80
7476;DHT22;3779;49.216;8.650;2022-09-13T17:04:28;27.60;52.70
7476;DHT22;3779;49.216;8.650;2022-09-13T17:07:14;27.60;52.80
7476;DHT22;3779;49.216;8.650;2022-09-13T17:10:00;27.60;52.80
7476;DHT22;3779;49.216;8.650;2022-09-13T17:12:46;27.60;52.80
7476;DHT22;3779;49.216;8.650;2022-09-13T17:15:37;27.60;52.80
7476;DHT22;3779;49.216;8.650;2022-09-13T17:18:23;27.60;53.00
7476;DHT22;3779;49.216;8.650;2022-09-13T17:21:09;27.60;52.90
7476;DHT22;3779;49.216;8.650;2022-09-13T17:23:55;27.60;52.70
7476;DHT22;3779;49.216;8.650;2022-09-13T17:26:42;27.60;52.80
7476;DHT22;3779;49.216;8.650;2022-09-13T17:29:28;27.60;52.70
7476;DHT22;3779;49.216;8.650;2022-09-13T17:32:15;27.60;52.80
7476;DHT22;3779;49.216;8.650;2022-09-13T17:35:01;27.60;52.70
7476;DHT22;3779;49.216;8.650;2022-09-13T17:37:47;27.60;52.70
7476;DHT22;3779;49.216;8.650;2022-09-13T17:40:34;27.60;53.00
7476;DHT22;3779;49.216;8.650;2022-09-13T17:43:19;27.60;52.90
7476;DHT22;3779;49.216;8.650;2022-09-13T17:46:25;27.60;52.90
7476;DHT22;3779;49.216;8.650;2022-09-13T17:49:16;27.50;53.30
7476;DHT22;3779;49.216;8.650;2022-09-13T17:52:01;27.60;52.90
7476;DHT22;3779;49.216;8.650;2022-09-13T17:54:50;27.60;52.90
7476;DHT22;3779;49.216;8.650;2022-09-13T17:57:36;27.60;53.00
7476;DHT22;3779;49.216;8.650;2022-09-13T18:00:23;27.60;53.00
7476;DHT22;3779;49.216;8.650;2022-09-13T18:03:09;27.60;53.10
7476;DHT22;3779;49.216;8.650;2022-09-13T18:05:57;27.60;53.30
7476;DHT22;3779;49.216;8.650;2022-09-13T18:08:43;27.50;53.40
7476;DHT22;3779;49.216;8.650;2022-09-13T18:11:29;27.60;53.40
7476;DHT22;3779;49.216;8.650;2022-09-13T18:14:16;27.60;53.40
7476;DHT22;3779;49.216;8.650;2022-09-13T18:17:03;27.60;53.30
7476;DHT22;3779;49.216;8.650;2022-09-13T18:19:57;27.60;53.20
7476;DHT22;3779;49.216;8.650;2022-09-13T18:22:46;27.60;53.10
7476;DHT22;3779;49.216;8.650;2022-09-13T18:25:32;27.50;52.90
7476;DHT22;3779;49.216;8.650;2022-09-13T18:28:18;27.50;53.50
7476;DHT22;3779;49.216;8.650;2022-09-13T18:31:08;27.40;54.10
7476;DHT22;3779;49.216;8.650;2022-09-13T18:33:59;27.20;54.60
7476;DHT22;3779;49.216;8.650;2022-09-13T18:36:46;27.20;54.70
7476;DHT22;3779;49.216;8.650;2022-09-13T18:39:32;27.20;54.70
7476;DHT22;3779;49.216;8.650;2022-09-13T18:42:18;27.20;54.60
7476;DHT22;3779;49.216;8.650;2022-09-13T18:45:04;27.20;54.60
7476;DHT22;3779;49.216;8.650;2022-09-13T18:47:51;27.20;54.60
7476;DHT22;3779;49.216;8.650;2022-09-13T18:50:41;27.40;54.00
7476;DHT22;3779;49.216;8.650;2022-09-13T18:53:28;27.50;53.80
7476;DHT22;3779;49.216;8.650;2022-09-13T18:56:16;27.50;53.60
7476;DHT22;3779;49.216;8.650;2022-09-13T18:59:04;27.50;53.60
7476;DHT22;3779;49.216;8.650;2022-09-13T19:01:51;27.60;53.50
7476;DHT22;3779;49.216;8.650;2022-09-13T19:04:36;27.60;53.60
7476;DHT22;3779;49.216;8.650;2022-09-13T19:07:23;27.60;53.50
7476;DHT22;3779;49.216;8.650;2022-09-13T19:10:10;27.60;53.70
7476;DHT22;3779;49.216;8.650;2022-09-13T19:12:55;27.50;53.80
7476;DHT22;3779;49.216;8.650;2022-09-13T19:15:42;27.50;53.70
7476;DHT22;3779;49.216;8.650;2022-09-13T19:18:28;27.50;53.80
7476;DHT22;3779;49.216;8.650;2022-09-13T19:21:16;27.50;53.60
7476;DHT22;3779;49.216;8.650;2022-09-13T19:24:02;27.50;53.60
7476;DHT22;3779;49.216;8.650;2022-09-13T19:26:50;27.50;53.50
7476;DHT22;3779;49.216;8.650;2022-09-13T19:29:36;27.50;53.60
7476;DHT22;3779;49.216;8.650;2022-09-13T19:32:21;27.50;53.60
7476;DHT22;3779;49.216;8.650;2022-09-13T19:35:08;27.50;53.70
7476;DHT22;3779;49.216;8.650;2022-09-13T19:37:54;27.50;53.70
7476;DHT22;3779;49.216;8.650;2022-09-13T19:40:41;27.50;53.70
7476;DHT22;3779;49.216;8.650;2022-09-13T19:43:29;27.50;53.90
7476;DHT22;3779;49.216;8.650;2022-09-13T19:46:20;27.50;53.90
7476;DHT22;3779;49.216;8.650;2022-09-13T19:49:13;27.50;54.00
7476;DHT22;3779;49.216;8.650;2022-09-13T19:52:02;27.50;54.00
7476;DHT22;3779;49.216;8.650;2022-09-13T19:54:48;27.50;53.90
7476;DHT22;3779;49.216;8.650;2022-09-13T19:57:36;27.50;54.00
7476;DHT22;3779;49.216;8.650;2022-09-13T20:00:22;27.50;54.00
7476;DHT22;3779;49.216;8.650;2022-09-13T20:03:08;27.50;54.00
7476;DHT22;3779;49.216;8.650;2022-09-13T20:05:59;27.50;54.00
7476;DHT22;3779;49.216;8.650;2022-09-13T20:08:45;27.50;54.10
7476;DHT22;3779;49.216;8.650;2022-09-13T20:11:32;27.50;54.10
7476;DHT22;3779;49.216;8.650;2022-09-13T20:14:20;27.50;54.10
7476;DHT22;3779;49.216;8.650;2022-09-13T20:17:06;27.50;54.70
7476;DHT22;3779;49.216;8.650;2022-09-13T20:19:53;27.50;54.10
7476;DHT22;3779;49.216;8.650;2022-09-13T20:22:39;27.50;54.10
7476;DHT22;3779;49.216;8.650;2022-09-13T20:25:25;27.50;54.10
7476;DHT22;3779;49.216;8.650;2022-09-13T20:28:11;27.50;54.10
7476;DHT22;3779;49.216;8.650;2022-09-13T20:30:58;27.50;54.10
7476;DHT22;3779;49.216;8.650;2022-09-13T20:33:45;27.50;54.20
7476;DHT22;3779;49.216;8.650;2022-09-13T20:36:34;27.50;54.10
7476;DHT22;3779;49.216;8.650;2022-09-13T20:39:20;27.50;54.20
7476;DHT22;3779;49.216;8.650;2022-09-13T20:42:06;27.50;54.10
7476;DHT22;3779;49.216;8.650;2022-09-13T20:44:52;27.50;54.10
7476;DHT22;3779;49.216;8.650;2022-09-13T20:47:37;27.50;54.10
7476;DHT22;3779;49.216;8.650;2022-09-13T20:50:23;27.50;54.10
7476;DHT22;3779;49.216;8.650;2022-09-13T20:53:09;27.50;54.10
7476;DHT22;3779;49.216;8.650;2022-09-13T20:56:00;27.50;54.10
7476;DHT22;3779;49.216;8.650;2022-09-13T20:58:53;27.50;54.10
7476;DHT22;3779;49.216;8.650;2022-09-13T21:01:39;27.50;54.10
7476;DHT22;3779;49.216;8.650;2022-09-13T21:04:25;27.40;54.10
7476;DHT22;3779;49.216;8.650;2022-09-13T21:07:11;27.50;54.10
7476;DHT22;3779;49.216;8.650;2022-09-13T21:10:16;27.50;54.10
7476;DHT22;3779;49.216;8.650;2022-09-13T21:13:02;27.50;54.10
7476;DHT22;3779;49.216;8.650;2022-09-13T21:15:48;27.50;54.00
7476;DHT22;3779;49.216;8.650;2022-09-13T21:18:35;27.50;54.10
7476;DHT22;3779;49.216;8.650;2022-09-13T21:21:23;27.50;54.10
7476;DHT22;3779;49.216;8.650;2022-09-13T21:24:11;27.50;54.10
7476;DHT22;3779;49.216;8.650;2022-09-13T21:26:57;27.50;54.10
7476;DHT22;3779;49.216;8.650;2022-09-13T21:29:43;27.50;54.10
7476;DHT22;3779;49.216;8.650;2022-09-13T21:32:29;27.50;54.10
7476;DHT22;3779;49.216;8.650;2022-09-13T21:35:15;27.50;54.10
7476;DHT22;3779;49.216;8.650;2022-09-13T21:38:00;27.50;54.00